Time;durP1;ratioP1;P1;durP2;ratioP2;P2;SDS_P1;SDS_P2;PMS_P1;PMS_P2;Temp;Humidity;BMP_temperature;BMP_pressure;BME280_temperature;BME280_humidity;BME280_pressure;Samples;Min_cycle;Max_cycle;Signal;HPM_P1;HPM_P2
2022/04/27 00:00:49;;;;;;;5.63;4.45;;;8.20;87.20;;;;;;5033285;28;20191;-63
2022/04/27 00:03:16;;;;;;;3.78;3.15;;;8.20;87.10;;;;;;5032974;28;20182;-63
2022/04/27 00:05:44;;;;;;;6.05;3.95;;;8.20;87.50;;;;;;5033294;28;20195;-63
2022/04/27 00:08:11;;;;;;;5.35;3.70;;;8.20;87.50;;;;;;5032658;28;20201;-63
2022/04/27 00:10:38;;;;;;;4.72;3.95;;;8.20;87.50;;;;;;5033107;28;20245;-63
2022/04/27 00:13:07;;;;;;;7.25;3.83;;;8.20;87.60;;;;;;5032518;28;20195;-63
2022/04/27 00:15:34;;;;;;;6.60;4.10;;;8.20;88.70;;;;;;5033120;28;20526;-63
2022/04/27 00:18:01;;;;;;;6.43;4.40;;;8.20;87.80;;;;;;5032730;28;20183;-63
2022/04/27 00:20:28;;;;;;;5.53;4.15;;;8.20;87.80;;;;;;5033225;28;20282;-63
2022/04/27 00:22:55;;;;;;;5.35;3.78;;;8.20;87.60;;;;;;5032664;28;20237;-63
2022/04/27 00:25:23;;;;;;;5.03;3.55;;;8.20;87.90;;;;;;5032885;28;20222;-64
2022/04/27 00:27:50;;;;;;;4.60;3.67;;;8.20;88.20;;;;;;5032431;28;20393;-64
2022/04/27 00:30:19;;;;;;;5.80;5.13;;;8.20;88.30;;;;;;5032683;28;20321;-63
2022/04/27 00:32:46;;;;;;;5.20;4.70;;;8.30;88.40;;;;;;5032205;28;20266;-63
2022/04/27 00:35:13;;;;;;;4.57;3.95;;;8.40;88.20;;;;;;5032614;28;20253;-63
2022/04/27 00:37:40;;;;;;;6.65;5.43;;;8.40;88.50;;;;;;5032239;28;20241;-63
2022/04/27 00:40:08;;;;;;;7.10;4.82;;;8.40;88.80;;;;;;5032573;28;20195;-66
2022/04/27 00:42:35;;;;;;;7.47;4.72;;;8.40;87.70;;;;;;5031708;28;20242;-64
2022/04/27 00:45:03;;;;;;;4.93;4.25;;;8.50;87.90;;;;;;5032421;28;20273;-63
2022/04/27 00:47:32;;;;;;;6.00;4.75;;;8.40;88.30;;;;;;5032073;28;20658;-63
2022/04/27 00:50:02;;;;;;;5.97;4.90;;;8.50;88.70;;;;;;5032269;28;20651;-62
2022/04/27 00:52:30;;;;;;;7.10;3.97;;;8.50;88.70;;;;;;5032427;28;20646;-63
2022/04/27 00:54:58;;;;;;;4.93;4.43;;;8.60;89.10;;;;;;5032160;28;20273;-63
2022/04/27 00:57:26;;;;;;;6.40;4.53;;;8.60;89.30;;;;;;5032378;28;20281;-63
2022/04/27 00:59:53;;;;;;;5.38;4.82;;;8.60;89.40;;;;;;5031969;28;20598;-62
2022/04/27 01:02:21;;;;;;;6.57;4.65;;;8.60;88.80;;;;;;5031770;28;20194;-64
2022/04/27 01:04:49;;;;;;;4.75;3.85;;;8.70;89.10;;;;;;5031753;28;20705;-63
2022/04/27 01:07:17;;;;;;;4.50;4.10;;;8.60;88.90;;;;;;5032345;28;20279;-63
2022/04/27 01:09:44;;;;;;;7.88;4.80;;;8.60;89.70;;;;;;5032044;28;20221;-65
2022/04/27 01:12:11;;;;;;;5.72;4.53;;;8.60;89.80;;;;;;5031263;28;20187;-63
2022/04/27 01:14:42;;;;;;;6.38;4.70;;;8.70;89.90;;;;;;5032003;28;20241;-63
2022/04/27 01:17:10;;;;;;;4.60;3.50;;;8.70;90.10;;;;;;5031799;28;20198;-63
2022/04/27 01:19:37;;;;;;;5.00;3.85;;;8.70;90.30;;;;;;5031963;28;20190;-64
2022/04/27 01:22:06;;;;;;;5.30;4.10;;;8.70;90.50;;;;;;5031484;28;20233;-63
2022/04/27 01:24:33;;;;;;;7.00;4.60;;;8.70;90.60;;;;;;5032110;28;20214;-62
2022/04/27 01:27:01;;;;;;;6.78;4.93;;;8.60;90.70;;;;;;5031224;28;20661;-63
2022/04/27 01:29:28;;;;;;;5.63;3.60;;;8.60;90.90;;;;;;5031879;28;20768;-63
2022/04/27 01:31:56;;;;;;;5.20;4.28;;;8.60;90.90;;;;;;5031467;28;20198;-62
2022/04/27 01:34:23;;;;;;;5.68;4.32;;;8.60;91.20;;;;;;5031310;28;20199;-63
2022/04/27 01:36:50;;;;;;;6.65;4.60;;;8.50;91.40;;;;;;5031924;28;20290;-63
2022/04/27 01:39:22;;;;;;;7.30;4.85;;;8.50;91.50;;;;;;5031603;28;20206;-63
2022/04/27 01:41:49;;;;;;;6.10;4.95;;;8.50;91.60;;;;;;5011807;28;20574;-65
2022/04/27 01:44:16;;;;;;;6.40;5.38;;;8.50;91.50;;;;;;5011839;28;20302;-62
2022/04/27 01:46:43;;;;;;;5.43;4.65;;;8.50;91.50;;;;;;5031231;28;20191;-63
2022/04/27 01:49:10;;;;;;;5.78;4.85;;;8.50;91.60;;;;;;5031808;28;20222;-63
2022/04/27 01:54:23;;;;;;;7.53;5.68;;;8.50;91.70;;;;;;5031825;28;20182;-62
2022/04/27 01:56:52;;;;;;;5.80;5.05;;;8.50;91.90;;;;;;5031026;28;20210;-63
2022/04/27 01:59:19;;;;;;;6.00;4.28;;;8.50;91.60;;;;;;5031421;28;20195;-63
2022/04/27 02:01:46;;;;;;;4.97;3.92;;;8.50;91.60;;;;;;5031613;28;20227;-62
2022/04/27 02:04:13;;;;;;;6.30;5.05;;;8.60;91.50;;;;;;5034553;28;20219;-63
2022/04/27 02:06:40;;;;;;;6.35;5.10;;;8.50;91.40;;;;;;5035184;28;20201;-63
2022/04/27 02:09:08;;;;;;;6.07;5.35;;;8.50;91.50;;;;;;5035252;28;20187;-63
2022/04/27 02:11:36;;;;;;;6.95;5.05;;;8.60;91.50;;;;;;5035094;28;20650;-63
2022/04/27 02:14:03;;;;;;;6.38;4.97;;;8.60;91.50;;;;;;5034869;28;20191;-63
2022/04/27 02:16:31;;;;;;;5.85;4.65;;;8.50;91.50;;;;;;5034917;28;20654;-63
2022/04/27 02:18:58;;;;;;;6.70;5.30;;;8.60;91.40;;;;;;5035161;28;20600;-62
2022/04/27 02:21:26;;;;;;;6.90;4.82;;;8.50;91.50;;;;;;5034996;28;20218;-63
2022/04/27 02:23:53;;;;;;;6.03;4.65;;;8.50;91.60;;;;;;5034980;28;20206;-62
2022/04/27 02:26:20;;;;;;;6.28;5.35;;;8.60;91.60;;;;;;5034806;28;20201;-62
2022/04/27 02:28:50;;;;;;;6.43;5.30;;;8.60;91.80;;;;;;5035053;28;20202;-63
2022/04/27 02:31:17;;;;;;;17.30;12.38;;;8.60;91.80;;;;;;5034858;28;20179;-63
2022/04/27 02:33:44;;;;;;;9.30;6.55;;;8.60;92.00;;;;;;5034652;28;20220;-63
2022/04/27 02:36:11;;;;;;;7.80;6.50;;;8.60;92.10;;;;;;5034457;28;20183;-63
2022/04/27 02:38:39;;;;;;;10.40;5.60;;;8.70;92.10;;;;;;5034960;28;20719;-63
2022/04/27 02:41:06;;;;;;;6.93;4.88;;;8.60;92.00;;;;;;5033681;28;20248;-67
2022/04/27 02:43:33;;;;;;;5.82;5.20;;;8.60;92.40;;;;;;5034797;28;20199;-63
2022/04/27 02:46:01;;;;;;;6.28;5.63;;;8.60;92.60;;;;;;5034376;28;20218;-63
2022/04/27 02:48:28;;;;;;;8.00;5.10;;;8.60;92.20;;;;;;5034804;28;20620;-62
2022/04/27 02:53:40;;;;;;;6.75;5.63;;;8.70;92.40;;;;;;5034771;28;20242;-63
2022/04/27 02:56:07;;;;;;;6.43;4.88;;;8.70;92.20;;;;;;5034481;28;20233;-63
2022/04/27 02:58:34;;;;;;;7.35;6.38;;;8.70;92.20;;;;;;5034359;28;20195;-65
2022/04/27 03:01:03;;;;;;;7.40;5.57;;;8.70;92.20;;;;;;5034066;28;20195;-63
2022/04/27 03:03:30;;;;;;;7.93;5.90;;;8.60;92.20;;;;;;5034879;28;20199;-63
2022/04/27 03:05:57;;;;;;;6.65;5.63;;;8.70;92.30;;;;;;5033895;28;20211;-62
2022/04/27 03:08:24;;;;;;;9.70;6.20;;;8.70;92.30;;;;;;5034477;28;20628;-63
2022/04/27 03:10:51;;;;;;;7.38;6.40;;;8.70;92.20;;;;;;5033729;28;20226;-67
2022/04/27 03:13:18;;;;;;;9.50;5.90;;;8.70;92.20;;;;;;5034152;28;20278;-63
2022/04/27 03:15:45;;;;;;;7.82;7.03;;;8.80;92.40;;;;;;5033901;28;20605;-63
2022/04/27 03:18:20;;;;;;;7.90;7.03;;;8.80;92.50;;;;;;5033890;28;20191;-63
2022/04/27 03:20:48;;;;;;;8.60;6.80;;;8.80;92.30;;;;;;5033663;28;20194;-63
2022/04/27 03:23:16;;;;;;;6.30;5.70;;;8.70;92.30;;;;;;5034019;28;20191;-63
2022/04/27 03:25:43;;;;;;;6.78;5.53;;;8.70;92.40;;;;;;5033379;28;20572;-63
2022/04/27 03:28:10;;;;;;;5.18;4.60;;;8.70;92.20;;;;;;5034090;28;20199;-64
2022/04/27 03:30:37;;;;;;;7.05;5.68;;;8.70;92.40;;;;;;5033591;28;20230;-63
2022/04/27 03:33:05;;;;;;;6.22;5.25;;;8.70;92.60;;;;;;5033693;28;20266;-64
2022/04/27 03:35:33;;;;;;;7.28;5.38;;;8.70;92.60;;;;;;5033381;28;20187;-64
2022/04/27 03:38:03;;;;;;;7.38;6.13;;;8.80;92.40;;;;;;5034109;28;20231;-63
2022/04/27 03:40:30;;;;;;;6.75;6.05;;;8.80;92.60;;;;;;5033477;28;20188;-63
2022/04/27 03:42:57;;;;;;;7.10;5.60;;;8.80;92.70;;;;;;5033274;28;20230;-63
2022/04/27 03:45:24;;;;;;;9.45;5.53;;;8.80;92.80;;;;;;5033266;28;20249;-63
2022/04/27 03:47:51;;;;;;;7.20;6.15;;;8.80;92.80;;;;;;5033488;28;20733;-63
2022/04/27 03:50:19;;;;;;;6.65;5.95;;;8.80;92.70;;;;;;5032906;28;20654;-63
2022/04/27 03:52:48;;;;;;;7.40;5.82;;;8.80;92.40;;;;;;5033371;28;20191;-63
2022/04/27 03:55:15;;;;;;;7.32;6.22;;;8.80;92.70;;;;;;5033241;28;20523;-62
2022/04/27 03:57:42;;;;;;;6.80;5.70;;;8.80;92.70;;;;;;5033127;28;20281;-64
2022/04/27 04:00:11;;;;;;;7.72;6.55;;;8.80;92.80;;;;;;5032812;28;20195;-64
2022/04/27 04:02:38;;;;;;;8.30;5.80;;;8.80;92.90;;;;;;5033736;28;20199;-62
2022/04/27 04:05:06;;;;;;;6.45;5.78;;;8.90;93.20;;;;;;5033247;28;20277;-63
2022/04/27 04:07:34;;;;;;;9.02;6.38;;;8.90;92.90;;;;;;5033556;28;20241;-63
2022/04/27 04:10:03;;;;;;;7.55;5.85;;;8.90;92.80;;;;;;5033421;28;20252;-64
2022/04/27 04:12:30;;;;;;;6.95;5.82;;;8.90;92.80;;;;;;5014119;28;20269;-63
2022/04/27 04:14:57;;;;;;;7.15;5.78;;;8.90;92.90;;;;;;5025012;28;20195;-63
2022/04/27 04:17:24;;;;;;;6.82;5.85;;;8.90;93.10;;;;;;5033118;28;20195;-63
2022/04/27 04:19:51;;;;;;;6.75;5.80;;;8.90;93.10;;;;;;5033022;28;20187;-63
2022/04/27 04:22:18;;;;;;;6.85;5.95;;;8.90;92.90;;;;;;5033201;28;20237;-63
2022/04/27 04:30:13;;;;;;;6.72;5.50;;;8.90;92.90;;;;;;5032638;28;20278;-63
2022/04/27 04:32:40;;;;;;;5.80;4.93;;;8.80;93.20;;;;;;5033079;28;20195;-63
2022/04/27 04:35:08;;;;;;;7.68;6.30;;;8.80;92.90;;;;;;5032938;28;20191;-63
2022/04/27 04:37:35;;;;;;;7.85;6.53;;;8.80;93.10;;;;;;5032446;28;20183;-63
2022/04/27 04:40:02;;;;;;;7.25;6.55;;;8.70;93.10;;;;;;5032455;28;20218;-63
2022/04/27 04:42:31;;;;;;;6.95;6.13;;;8.70;93.20;;;;;;5032620;28;20273;-63
2022/04/27 04:44:58;;;;;;;6.88;5.75;;;8.70;93.40;;;;;;5032294;28;20273;-62
2022/04/27 04:47:26;;;;;;;6.30;5.65;;;8.80;93.40;;;;;;5032798;28;20199;-64
2022/04/27 04:49:54;;;;;;;7.65;6.55;;;8.80;93.30;;;;;;5032580;28;20274;-62
2022/04/27 04:52:21;;;;;;;7.13;6.43;;;8.80;93.30;;;;;;5032645;28;20199;-63
2022/04/27 04:54:48;;;;;;;9.25;7.60;;;8.80;93.60;;;;;;5032118;28;20692;-63
2022/04/27 04:57:15;;;;;;;7.85;6.82;;;8.80;93.70;;;;;;5032543;28;20199;-63
2022/04/27 04:59:43;;;;;;;13.13;7.82;;;8.80;93.70;;;;;;5032056;28;20215;-63
2022/04/27 05:02:10;;;;;;;10.95;9.45;;;8.80;93.80;;;;;;5032549;28;20287;-65
2022/04/27 05:04:37;;;;;;;9.18;7.55;;;8.90;93.50;;;;;;5032077;28;20253;-63
2022/04/27 05:07:05;;;;;;;9.43;8.48;;;8.90;93.40;;;;;;5032459;28;20288;-63
2022/04/27 05:09:32;;;;;;;9.25;6.75;;;9.00;93.50;;;;;;5032128;28;20688;-63
2022/04/27 05:11:59;;;;;;;10.30;7.15;;;9.00;93.40;;;;;;5032402;28;20191;-63
2022/04/27 05:14:27;;;;;;;8.15;6.35;;;9.00;93.50;;;;;;5032195;28;20223;-63
2022/04/27 05:16:55;;;;;;;7.15;5.90;;;9.10;93.40;;;;;;5031914;28;20193;-63
2022/04/27 05:19:22;;;;;;;9.68;6.93;;;9.10;93.40;;;;;;5029001;28;20910;-64
2022/04/27 05:21:50;;;;;;;6.85;5.88;;;9.20;93.40;;;;;;5030698;28;20186;-63
2022/04/27 05:24:17;;;;;;;7.95;6.68;;;9.20;93.80;;;;;;5029939;28;20252;-64
2022/04/27 05:26:44;;;;;;;9.55;6.75;;;9.30;93.30;;;;;;5026199;28;20227;-64
2022/04/27 05:31:58;;;;;;;8.95;6.55;;;9.40;92.90;;;;;;5030663;28;20202;-63
2022/04/27 05:34:25;;;;;;;8.60;7.55;;;9.40;92.70;;;;;;5029389;28;20238;-63
2022/04/27 05:36:53;;;;;;;9.43;7.97;;;9.50;92.80;;;;;;5030859;28;20249;-63
2022/04/27 05:39:21;;;;;;;7.68;6.88;;;9.50;92.70;;;;;;5034011;28;20282;-63
2022/04/27 05:41:49;;;;;;;9.05;7.07;;;9.50;92.50;;;;;;5029179;28;20227;-63
2022/04/27 05:44:17;;;;;;;6.93;6.18;;;9.50;91.40;;;;;;5032892;28;20602;-63
2022/04/27 05:46:45;;;;;;;9.10;6.80;;;9.60;91.50;;;;;;5034379;28;20265;-64
2022/04/27 05:49:13;;;;;;;7.10;6.30;;;9.60;91.60;;;;;;5030856;28;20202;-63
2022/04/27 05:51:40;;;;;;;7.20;6.28;;;9.60;91.90;;;;;;5034504;28;20226;-65
2022/04/27 05:54:07;;;;;;;7.75;6.72;;;9.60;91.80;;;;;;5031245;28;20275;-64
2022/04/27 05:56:34;;;;;;;10.30;7.30;;;9.60;91.40;;;;;;5033465;28;20269;-64
2022/04/27 05:59:01;;;;;;;6.93;5.55;;;9.70;91.20;;;;;;5034182;28;20273;-63
2022/04/27 06:01:28;;;;;;;9.45;6.80;;;9.70;91.40;;;;;;5034033;28;20658;-63
2022/04/27 06:03:55;;;;;;;8.27;6.25;;;9.60;91.30;;;;;;5034325;28;20191;-62
2022/04/27 06:06:24;;;;;;;8.65;6.53;;;9.60;91.80;;;;;;5032994;28;20330;-64
2022/04/27 06:08:51;;;;;;;14.77;7.25;;;9.60;92.10;;;;;;5033541;28;20183;-63
2022/04/27 06:11:19;;;;;;;7.40;6.57;;;9.70;92.30;;;;;;5033441;28;20197;-63
2022/04/27 06:13:46;;;;;;;6.68;6.07;;;9.90;92.70;;;;;;5034055;28;20210;-63
2022/04/27 06:16:14;;;;;;;8.27;7.38;;;10.00;92.00;;;;;;5030216;28;20183;-63
2022/04/27 06:18:41;;;;;;;11.85;7.38;;;10.10;91.80;;;;;;5033671;28;20605;-63
2022/04/27 06:21:08;;;;;;;7.70;6.65;;;10.20;91.40;;;;;;5033480;28;20337;-63
2022/04/27 06:23:38;;;;;;;7.90;6.40;;;10.20;91.30;;;;;;5033524;28;20708;-65
2022/04/27 06:26:06;;;;;;;7.72;6.93;;;10.30;90.60;;;;;;5026690;28;20211;-64
2022/04/27 06:28:34;;;;;;;6.97;6.28;;;10.30;90.30;;;;;;5028434;28;20563;-68
2022/04/27 06:31:01;;;;;;;9.20;7.13;;;10.30;90.50;;;;;;5033132;28;20203;-63
2022/04/27 06:33:29;;;;;;;6.85;5.85;;;10.40;90.40;;;;;;5033378;28;20223;-63
2022/04/27 06:35:56;;;;;;;7.40;6.45;;;10.40;89.90;;;;;;5033113;28;20187;-63
2022/04/27 06:38:23;;;;;;;8.05;6.03;;;10.50;89.70;;;;;;5032940;28;20238;-63
2022/04/27 06:40:51;;;;;;;9.52;8.38;;;10.60;89.60;;;;;;5032598;28;20270;-63
2022/04/27 06:43:18;;;;;;;7.88;6.45;;;10.60;88.10;;;;;;5031029;28;20250;-63
2022/04/27 06:45:45;;;;;;;6.20;5.35;;;10.70;88.10;;;;;;5031914;28;20215;-63
2022/04/27 06:48:13;;;;;;;6.97;5.60;;;10.80;87.20;;;;;;5031113;28;20188;-63
2022/04/27 06:50:40;;;;;;;7.60;6.25;;;10.90;85.30;;;;;;5030358;28;20277;-64
2022/04/27 06:53:09;;;;;;;8.00;6.60;;;10.90;83.20;;;;;;5031110;28;20195;-63
2022/04/27 06:55:37;;;;;;;8.90;7.38;;;10.80;79.50;;;;;;5028797;28;20191;-63
2022/04/27 06:58:06;;;;;;;7.57;6.40;;;10.80;81.50;;;;;;5031561;28;20197;-67
2022/04/27 07:00:33;;;;;;;7.20;5.60;;;11.00;82.20;;;;;;5030847;28;20191;-63
2022/04/27 07:03:01;;;;;;;9.25;6.00;;;10.90;80.40;;;;;;5031347;28;20202;-63
2022/04/27 07:05:28;;;;;;;7.60;5.93;;;11.00;82.00;;;;;;5031724;28;20187;-63
2022/04/27 07:07:55;;;;;;;8.32;6.25;;;11.20;82.70;;;;;;5031034;28;20607;-64
2022/04/27 07:10:22;;;;;;;8.68;6.72;;;11.40;80.20;;;;;;5031377;28;20194;-63
2022/04/27 07:12:49;;;;;;;7.68;5.95;;;11.40;79.10;;;;;;5031476;28;20187;-63
2022/04/27 07:15:18;;;;;;;8.05;6.05;;;11.60;79.40;;;;;;5031294;28;20638;-64
2022/04/27 07:17:45;;;;;;;7.05;6.35;;;11.70;78.30;;;;;;5031534;28;20191;-64
2022/04/27 07:20:13;;;;;;;7.03;5.38;;;11.80;79.00;;;;;;5027461;28;20245;-63
2022/04/27 07:22:40;;;;;;;11.02;7.68;;;12.10;79.00;;;;;;5030992;28;20206;-64
2022/04/27 07:25:08;;;;;;;8.98;7.50;;;12.30;78.50;;;;;;5030312;28;20187;-64
2022/04/27 07:27:36;;;;;;;10.57;7.22;;;12.60;79.20;;;;;;5031064;28;20219;-64
2022/04/27 07:30:04;;;;;;;7.23;6.50;;;12.80;79.60;;;;;;5031188;28;20191;-64
2022/04/27 07:32:33;;;;;;;7.50;6.43;;;13.00;75.70;;;;;;5031560;28;20474;-63
2022/04/27 07:35:00;;;;;;;8.70;6.33;;;13.20;72.70;;;;;;5031423;28;20469;-64
2022/04/27 07:37:27;;;;;;;7.63;6.93;;;13.20;73.80;;;;;;5031423;28;20437;-64
2022/04/27 07:39:55;;;;;;;9.33;6.90;;;13.30;74.40;;;;;;5030991;28;20900;-65
2022/04/27 07:42:22;;;;;;;6.47;5.73;;;13.30;69.80;;;;;;5022339;28;212596;-64
2022/04/27 07:44:49;;;;;;;7.13;6.40;;;13.30;70.20;;;;;;5030219;28;20517;-63
2022/04/27 07:47:16;;;;;;;8.70;7.30;;;13.40;72.00;;;;;;5023403;28;20481;-63
2022/04/27 07:49:47;;;;;;;7.37;6.63;;;13.70;75.10;;;;;;5029874;28;20827;-63
2022/04/27 07:52:14;;;;;;;10.93;7.37;;;14.00;73.00;;;;;;5031068;28;20469;-64
2022/04/27 07:54:43;;;;;;;6.83;6.23;;;14.30;74.90;;;;;;5029766;28;20442;-64
2022/04/27 07:57:10;;;;;;;8.63;7.50;;;14.60;74.50;;;;;;5026276;28;20442;-65
2022/04/27 07:59:37;;;;;;;8.73;7.03;;;15.00;73.30;;;;;;5024783;28;20803;-68
2022/04/27 08:02:05;;;;;;;9.60;6.53;;;15.30;72.60;;;;;;5028597;28;20817;-64
2022/04/27 08:04:32;;;;;;;8.60;7.70;;;15.70;72.10;;;;;;5029344;28;20450;-64
2022/04/27 08:07:00;;;;;;;7.93;6.50;;;16.00;65.40;;;;;;5029397;28;20825;-63
2022/04/27 08:09:27;;;;;;;8.20;6.27;;;16.20;58.70;;;;;;5029745;28;20446;-64
2022/04/27 08:11:55;;;;;;;6.63;5.80;;;16.20;59.50;;;;;;5027581;28;21342;-64
2022/04/27 08:14:22;;;;;;;7.10;5.93;;;16.50;59.30;;;;;;5025514;28;20446;-64
2022/04/27 08:16:49;;;;;;;6.90;6.20;;;16.70;58.90;;;;;;5027995;28;20448;-64
2022/04/27 08:19:16;;;;;;;8.57;5.97;;;16.80;56.30;;;;;;5028295;28;20808;-63
2022/04/27 08:21:44;;;;;;;8.07;6.00;;;16.70;54.10;;;;;;5028226;28;20437;-64
2022/04/27 08:24:16;;;;;;;7.37;5.97;;;16.80;55.40;;;;;;5028562;28;20449;-64
2022/04/27 08:26:43;;;;;;;7.43;6.17;;;16.70;54.50;;;;;;5027070;28;20491;-64
2022/04/27 08:29:10;;;;;;;9.10;5.83;;;16.60;53.20;;;;;;5028804;28;20434;-66
2022/04/27 08:31:38;;;;;;;7.63;5.53;;;16.50;53.00;;;;;;5028579;28;20908;-64
2022/04/27 08:34:05;;;;;;;9.07;7.17;;;16.40;52.50;;;;;;5028895;28;20941;-64
2022/04/27 08:36:32;;;;;;;6.93;5.80;;;16.40;49.70;;;;;;5028111;28;20870;-64
2022/04/27 08:38:59;;;;;;;8.43;6.83;;;16.40;50.20;;;;;;5028092;28;20445;-65
2022/04/27 08:41:29;;;;;;;7.60;6.27;;;16.60;50.60;;;;;;5027419;28;20467;-64
2022/04/27 08:43:57;;;;;;;8.20;6.60;;;16.80;52.50;;;;;;5028685;28;21838;-64
2022/04/27 08:46:26;;;;;;;8.27;6.13;;;17.10;51.00;;;;;;5028934;28;20482;-65
2022/04/27 08:48:53;;;;;;;6.37;5.60;;;17.20;51.90;;;;;;5028429;28;20943;-64
2022/04/27 08:51:20;;;;;;;6.80;6.10;;;17.50;52.50;;;;;;5029130;28;20441;-63
2022/04/27 08:53:47;;;;;;;6.80;5.93;;;17.70;49.50;;;;;;5028746;28;20483;-64
2022/04/27 08:56:16;;;;;;;8.77;7.03;;;18.00;49.70;;;;;;5028680;28;20445;-66
2022/04/27 08:58:45;;;;;;;7.90;6.50;;;18.30;47.20;;;;;;5028198;28;20500;-65
2022/04/27 09:01:13;;;;;;;6.83;5.70;;;18.40;48.50;;;;;;5028591;28;20441;-64
2022/04/27 09:03:41;;;;;;;7.67;5.70;;;18.50;47.10;;;;;;5027901;28;20433;-64
2022/04/27 09:06:10;;;;;;;7.73;6.10;;;18.50;46.00;;;;;;5027937;28;20503;-64
2022/04/27 09:08:40;;;;;;;6.20;4.97;;;18.50;47.90;;;;;;5028503;28;20540;-65
2022/04/27 09:11:20;;;;;;;7.47;6.13;;;18.70;49.00;;;;;;5027282;28;21021;-65
2022/04/27 09:13:53;;;;;;;8.07;5.93;;;18.90;48.90;;;;;;5028247;28;20484;-64
2022/04/27 09:16:22;;;;;;;7.80;7.00;;;19.10;48.90;;;;;;5029310;28;20936;-65
2022/04/27 09:21:59;;;;;;;6.93;5.80;;;19.50;48.30;;;;;;5027504;28;20433;-63
2022/04/27 09:24:26;;;;;;;7.37;6.67;;;19.80;47.20;;;;;;5027479;28;20434;-64
2022/04/27 09:27:18;;;;;;;7.10;5.60;;;20.10;47.30;;;;;;5027328;28;20577;-64
2022/04/27 09:29:56;;;;;;;6.27;5.57;;;20.30;45.80;;;;;;5028114;28;20449;-64
2022/04/27 09:32:23;;;;;;;7.53;5.50;;;20.40;44.00;;;;;;5028365;28;20477;-63
2022/04/27 09:34:50;;;;;;;7.27;6.00;;;20.30;41.70;;;;;;5027650;28;20532;-65
2022/04/27 09:37:19;;;;;;;7.23;5.10;;;20.50;38.80;;;;;;5028113;28;20979;-64
2022/04/27 09:40:02;;;;;;;6.50;5.53;;;20.60;41.10;;;;;;5027904;28;20438;-64
2022/04/27 09:42:33;;;;;;;6.60;6.00;;;20.90;42.10;;;;;;5028365;28;20991;-64
2022/04/27 09:48:01;;;;;;;7.67;6.87;;;21.30;42.30;;;;;;5143834;27;20648;-63
2022/04/27 09:50:47;;;;;;;9.50;6.33;;;21.90;39.50;;;;;;5126368;28;20476;-63
2022/04/27 09:53:15;;;;;;;7.30;6.27;;;22.20;40.00;;;;;;5125274;28;20502;-62
2022/04/27 09:55:47;;;;;;;7.90;7.10;;;22.30;39.20;;;;;;5126225;28;20498;-63
2022/04/27 09:58:16;;;;;;;7.33;6.50;;;22.30;38.20;;;;;;5126605;27;20445;-63
2022/04/27 10:00:44;;;;;;;9.03;7.07;;;22.30;36.90;;;;;;5126297;28;20437;-63
2022/04/27 10:03:15;;;;;;;7.30;5.70;;;22.10;37.70;;;;;;5126762;28;20799;-63
2022/04/27 10:05:43;;;;;;;7.20;6.50;;;21.70;36.80;;;;;;5128470;27;20438;-63
2022/04/27 10:08:12;;;;;;;7.50;6.60;;;21.40;36.60;;;;;;5128091;27;20456;-63
2022/04/27 10:10:41;;;;;;;9.00;6.90;;;21.10;36.60;;;;;;5128049;27;20490;-63
2022/04/27 10:13:12;;;;;;;7.43;6.00;;;20.90;37.10;;;;;;5129190;28;20442;-63
2022/04/27 10:15:43;;;;;;;8.97;7.73;;;20.60;36.50;;;;;;5128942;28;20528;-63
2022/04/27 10:18:14;;;;;;;8.13;5.70;;;20.20;36.30;;;;;;5128406;28;20441;-63
2022/04/27 10:20:41;;;;;;;9.73;5.80;;;20.00;36.10;;;;;;5128768;28;20471;-62
2022/04/27 10:23:24;;;;;;;6.53;5.63;;;19.70;36.70;;;;;;5128729;27;20520;-63
2022/04/27 10:26:15;;;;;;;6.30;5.03;;;19.60;39.40;;;;;;5125563;28;20425;-62
2022/04/27 10:28:49;;;;;;;7.00;5.07;;;19.50;39.50;;;;;;5124493;28;20450;-62
2022/04/27 10:32:02;;;;;;;6.50;5.17;;;19.60;40.30;;;;;;5128987;28;20522;-63
2022/04/27 10:34:31;;;;;;;5.60;4.33;;;19.80;40.70;;;;;;5128404;27;20511;-63
2022/04/27 10:36:59;;;;;;;5.10;4.43;;;20.00;39.40;;;;;;5126116;27;20532;-63
2022/04/27 10:39:28;;;;;;;5.50;4.60;;;20.20;38.40;;;;;;5126561;28;20440;-63
2022/04/27 10:42:25;;;;;;;5.30;4.27;;;20.30;38.70;;;;;;5123712;28;20438;-62
2022/04/27 10:45:09;;;;;;;5.53;4.43;;;20.40;38.30;;;;;;5125003;28;20433;-63
2022/04/27 10:47:43;;;;;;;6.23;4.70;;;20.60;38.00;;;;;;5126807;27;20469;-63
2022/04/27 10:50:30;;;;;;;4.50;3.30;;;21.00;39.10;;;;;;5124426;28;20437;-63
2022/04/27 10:53:01;;;;;;;4.80;4.23;;;21.50;38.60;;;;;;5124668;28;20441;-62
2022/04/27 10:55:51;;;;;;;6.40;4.20;;;21.60;38.80;;;;;;5126599;28;20426;-62
2022/04/27 10:58:19;;;;;;;7.27;4.70;;;21.70;37.30;;;;;;5120106;28;20441;-63
2022/04/27 11:01:26;;;;;;;6.07;4.70;;;21.90;36.40;;;;;;5116064;28;20526;-64
2022/04/27 11:04:09;;;;;;;5.87;4.60;;;21.80;35.50;;;;;;5115633;28;20483;-63
2022/04/27 11:07:24;;;;;;;6.53;5.53;;;21.60;35.20;;;;;;5115359;28;20474;-62
2022/04/27 11:10:11;;;;;;;5.93;4.47;;;21.50;36.10;;;;;;5116070;28;20430;-63
2022/04/27 11:12:39;;;;;;;5.00;4.50;;;21.30;36.40;;;;;;5115649;28;20465;-63
2022/04/27 11:15:08;;;;;;;5.47;4.70;;;21.10;36.60;;;;;;5115636;28;20517;-62
2022/04/27 11:17:35;;;;;;;5.33;4.30;;;21.00;36.90;;;;;;5115943;28;20822;-63
2022/04/27 11:20:03;;;;;;;5.83;4.80;;;20.90;36.70;;;;;;5115422;28;20444;-63
2022/04/27 11:22:38;;;;;;;6.10;4.73;;;20.90;36.20;;;;;;5115848;28;20537;-63
2022/04/27 11:25:08;;;;;;;6.40;4.80;;;20.90;37.70;;;;;;5115720;28;20429;-62
2022/04/27 11:27:36;;;;;;;6.77;4.60;;;21.20;38.10;;;;;;5115693;28;20482;-63
2022/04/27 11:30:05;;;;;;;5.43;4.60;;;21.40;36.60;;;;;;5115832;28;20460;-63
2022/04/27 11:32:32;;;;;;;6.70;4.00;;;21.60;37.40;;;;;;5115992;28;20453;-63
2022/04/27 11:34:59;;;;;;;5.80;4.23;;;21.80;36.70;;;;;;5115820;28;20436;-63
2022/04/27 11:37:26;;;;;;;5.50;4.73;;;22.00;36.30;;;;;;5115479;28;20451;-63
2022/04/27 11:39:53;;;;;;;5.20;3.70;;;22.10;36.90;;;;;;5115533;28;20435;-63
2022/04/27 11:42:21;;;;;;;4.77;4.27;;;22.20;36.80;;;;;;5115570;28;20434;-63
2022/04/27 11:44:52;;;;;;;5.53;4.57;;;22.40;36.10;;;;;;5115579;28;20434;-63
2022/04/27 11:47:27;;;;;;;5.00;4.10;;;22.70;36.50;;;;;;5115187;28;20488;-62
2022/04/27 11:49:56;;;;;;;5.30;4.33;;;22.70;35.60;;;;;;5115291;28;20440;-63
2022/04/27 11:52:23;;;;;;;6.03;4.67;;;22.70;36.20;;;;;;5115191;28;20465;-63
2022/04/27 11:54:50;;;;;;;5.90;4.50;;;22.70;34.60;;;;;;5114793;28;20430;-63
2022/04/27 11:57:23;;;;;;;5.53;4.27;;;22.70;35.80;;;;;;5115179;28;20438;-63
2022/04/27 11:59:52;;;;;;;5.07;4.40;;;22.80;35.30;;;;;;5115245;28;20769;-63
2022/04/27 12:02:23;;;;;;;5.73;4.07;;;23.00;36.20;;;;;;5115257;28;20470;-63
2022/04/27 12:04:51;;;;;;;7.07;4.60;;;23.30;36.40;;;;;;5115161;28;20440;-63
2022/04/27 12:07:19;;;;;;;5.10;4.57;;;23.50;34.50;;;;;;5114954;28;20482;-64
2022/04/27 12:09:57;;;;;;;4.47;3.80;;;23.50;33.80;;;;;;5113325;28;20441;-63
2022/04/27 12:12:26;;;;;;;6.00;4.17;;;23.50;33.40;;;;;;5114799;28;20524;-63
2022/04/27 12:14:53;;;;;;;6.57;4.70;;;23.50;32.70;;;;;;5114902;28;20461;-63
2022/04/27 12:17:47;;;;;;;4.30;3.60;;;23.40;32.50;;;;;;5115000;27;20784;-63
2022/04/27 12:20:37;;;;;;;5.30;4.10;;;23.30;33.30;;;;;;5110407;27;20503;-63
2022/04/27 12:23:06;;;;;;;4.73;4.23;;;23.10;32.50;;;;;;5114894;28;20434;-66
2022/04/27 12:25:36;;;;;;;5.73;4.40;;;22.90;33.60;;;;;;5114749;28;20784;-64
2022/04/27 12:28:06;;;;;;;6.60;4.03;;;22.70;33.20;;;;;;5114656;28;20486;-64
2022/04/27 12:30:40;;;;;;;4.30;3.70;;;22.50;33.50;;;;;;5114479;28;20522;-63
2022/04/27 12:33:07;;;;;;;4.53;3.50;;;22.40;34.00;;;;;;5114443;28;20975;-63
2022/04/27 12:38:18;;;;;;;4.73;3.43;;;22.40;34.80;;;;;;5114536;28;20437;-63
2022/04/27 12:40:45;;;;;;;5.10;3.70;;;22.20;33.80;;;;;;5114468;28;20449;-63
2022/04/27 12:43:14;;;;;;;4.60;3.70;;;22.10;33.80;;;;;;5114063;28;20445;-63
2022/04/27 12:46:08;;;;;;;4.83;3.90;;;22.00;34.00;;;;;;5113898;28;20934;-63
2022/04/27 12:48:36;;;;;;;4.37;3.27;;;21.90;34.60;;;;;;5114024;28;20489;-64
2022/04/27 12:51:05;;;;;;;4.53;3.60;;;21.80;34.20;;;;;;5114282;28;20434;-63
2022/04/27 12:53:32;;;;;;;5.00;3.80;;;21.80;34.00;;;;;;5114215;28;20983;-62
2022/04/27 12:56:11;;;;;;;5.13;4.03;;;21.80;33.80;;;;;;5114126;28;20513;-63
2022/04/27 12:58:40;;;;;;;4.97;3.77;;;21.80;34.30;;;;;;5113876;28;20441;-63
2022/04/27 13:01:07;;;;;;;10.37;3.80;;;21.80;33.90;;;;;;5113928;28;20446;-63
2022/04/27 13:03:35;;;;;;;5.57;3.70;;;21.70;33.90;;;;;;5114020;28;20430;-64
2022/04/27 13:06:02;;;;;;;5.57;4.37;;;21.80;34.70;;;;;;5114011;28;20434;-63
2022/04/27 13:08:29;;;;;;;4.60;3.20;;;21.80;33.90;;;;;;5113696;28;20818;-63
2022/04/27 13:13:42;;;;;;;5.37;3.50;;;21.80;32.90;;;;;;5113642;28;20468;-63
2022/04/27 13:16:09;;;;;;;4.67;3.67;;;21.70;33.40;;;;;;5113647;28;20457;-63
2022/04/27 13:18:36;;;;;;;4.50;3.30;;;21.60;34.10;;;;;;5113505;28;20438;-63
2022/04/27 13:21:03;;;;;;;4.50;3.77;;;21.50;33.50;;;;;;5113337;28;20470;-64
2022/04/27 13:23:30;;;;;;;6.83;3.70;;;21.40;33.80;;;;;;5113711;28;20509;-62
2022/04/27 13:25:57;;;;;;;4.30;3.40;;;21.30;33.80;;;;;;5113882;28;20529;-63